KMGR/MGR METAR and TAF weather

Enter ICAO airport designator
Station Type Date Time Source
KMGR METAR 2021/03/01 04:10 UTC NOAA

KMGR 010410Z AUTO 20003KT 10SM CLR 19/18 A3008 RMK AO2


Station Type Date Time Source
KMGR Decoded METAR 2021/03/01 04:10 UTC NOAA

Moultrie, Moultrie Municipal Airport, GA, United States (KMGR) 31-05-05N 083-48-11W
Feb 28, 2021 - 11:10 PM EST / 2021.03.01 0410 UTC
Wind: from the SSW (200 degrees) at 3 MPH (3 KT):0
Visibility: 10 mile(s):0
Sky conditions: clear
Temperature: 66 F (19 C)
Dew Point: 64 F (18 C)
Relative Humidity: 93%
Pressure (altimeter): 30.08 in. Hg (1018 hPa)
ob: KMGR 010410Z AUTO 20003KT 10SM CLR 19/18 A3008 RMK AO2
cycle: 4

Station Type Date Time Source
KMGR TAF UTC NOAA

Error!

Example: see airport list